BBB077A MMZC-MMMX
Flight info
| Callsign | BBB077A |
|---|---|
| Flight time | 0h 53m |
| Altitude | 35000 |
| Route | ZCL2B ZCL UT130 DARAN DARAN3A |
| Aircraft | A21N/M-SDE3FGHIRWY/LB1 |
Departure
| Time | 2026-05-06 01:37 |
|---|---|
| Airport | General Leobardo C. Ruiz International Airport (MMZC) |
Arrival
| Time | 2026-05-06 02:31 |
|---|---|
| Airport | Mexico City Benito Juárez International Airport (MMMX) |
| Time | Latitude | Longitude | Altitude | Speed | Heading |
|---|---|---|---|---|---|
| 2026-05-06 01:08 | 22.90068 | -102.68118 | 7142 ft | 0 kts | 117° |
| 2026-05-06 01:28 | 22.90074 | -102.68133 | 7141 ft | 2 kts | 99° |
| 2026-05-06 01:29 | 22.90075 | -102.68149 | 7141 ft | 2 kts | 87° |
| 2026-05-06 01:29 | 22.90072 | -102.68165 | 7141 ft | 2 kts | 72° |
| 2026-05-06 01:29 | 22.90067 | -102.68179 | 7141 ft | 2 kts | 57° |
| 2026-05-06 01:29 | 22.90057 | -102.68192 | 7141 ft | 2 kts | 43° |
| 2026-05-06 01:30 | 22.90045 | -102.68201 | 7141 ft | 2 kts | 27° |
| 2026-05-06 01:30 | 22.90041 | -102.68204 | 7141 ft | 0 kts | 25° |
| 2026-05-06 01:33 | 22.90043 | -102.68203 | 7141 ft | 1 kts | 25° |
| 2026-05-06 01:33 | 22.90071 | -102.68187 | 7141 ft | 5 kts | 26° |
| 2026-05-06 01:34 | 22.90111 | -102.68189 | 7141 ft | 6 kts | 329° |
| 2026-05-06 01:34 | 22.90140 | -102.68240 | 7140 ft | 9 kts | 292° |
| 2026-05-06 01:34 | 22.90178 | -102.68298 | 7140 ft | 10 kts | 336° |
| 2026-05-06 01:34 | 22.90258 | -102.68282 | 7140 ft | 14 kts | 27° |
| 2026-05-06 01:35 | 22.90359 | -102.68223 | 7140 ft | 17 kts | 29° |
| 2026-05-06 01:35 | 22.90464 | -102.68160 | 7139 ft | 16 kts | 28° |
| 2026-05-06 01:35 | 22.90567 | -102.68100 | 7139 ft | 16 kts | 28° |
| 2026-05-06 01:35 | 22.90667 | -102.68041 | 7139 ft | 13 kts | 38° |
| 2026-05-06 01:36 | 22.90708 | -102.67970 | 7139 ft | 9 kts | 58° |
| 2026-05-06 01:36 | 22.90755 | -102.67979 | 7138 ft | 8 kts | 273° |
| 2026-05-06 01:36 | 22.90710 | -102.68021 | 7139 ft | 9 kts | 207° |
| 2026-05-06 01:36 | 22.90554 | -102.68108 | 7139 ft | 56 kts | 208° |
| 2026-05-06 01:37 | 22.89999 | -102.68426 | 7140 ft | 122 kts | 208° |
| 2026-05-06 01:37 | 22.89073 | -102.68961 | 7145 ft | 176 kts | 211° |
| 2026-05-06 01:37 | 22.87944 | -102.69611 | 7620 ft | 184 kts | 208° |
| 2026-05-06 01:37 | 22.86803 | -102.70183 | 8177 ft | 182 kts | 207° |
| 2026-05-06 01:38 | 22.85640 | -102.70761 | 8546 ft | 189 kts | 208° |
| 2026-05-06 01:38 | 22.84449 | -102.71375 | 9051 ft | 188 kts | 208° |
| 2026-05-06 01:38 | 22.83287 | -102.71986 | 9554 ft | 187 kts | 209° |
| 2026-05-06 01:38 | 22.82127 | -102.72608 | 10017 ft | 188 kts | 209° |
| 2026-05-06 01:39 | 22.80975 | -102.73230 | 10460 ft | 190 kts | 209° |
| 2026-05-06 01:39 | 22.79802 | -102.73865 | 10924 ft | 191 kts | 209° |
| 2026-05-06 01:39 | 22.78608 | -102.74513 | 11392 ft | 192 kts | 209° |
| 2026-05-06 01:39 | 22.77341 | -102.74986 | 11779 ft | 201 kts | 184° |
| 2026-05-06 01:40 | 22.75973 | -102.74497 | 12018 ft | 221 kts | 147° |
| 2026-05-06 01:40 | 22.74740 | -102.73407 | 12288 ft | 237 kts | 141° |
| 2026-05-06 01:40 | 22.73462 | -102.72201 | 12551 ft | 251 kts | 142° |
| 2026-05-06 01:40 | 22.72060 | -102.70918 | 12735 ft | 272 kts | 142° |
| 2026-05-06 01:41 | 22.70542 | -102.69578 | 13018 ft | 289 kts | 143° |
| 2026-05-06 01:41 | 22.68906 | -102.68168 | 13343 ft | 305 kts | 143° |
| 2026-05-06 01:41 | 22.67229 | -102.66740 | 13873 ft | 313 kts | 143° |
| 2026-05-06 01:41 | 22.65518 | -102.65292 | 14543 ft | 314 kts | 143° |
| 2026-05-06 01:42 | 22.63773 | -102.63822 | 15222 ft | 316 kts | 144° |
| 2026-05-06 01:42 | 22.62036 | -102.62364 | 15881 ft | 318 kts | 144° |
| 2026-05-06 01:42 | 22.60283 | -102.60896 | 16531 ft | 320 kts | 144° |
| 2026-05-06 01:42 | 22.58502 | -102.59406 | 17171 ft | 323 kts | 144° |
| 2026-05-06 01:43 | 22.56734 | -102.57930 | 17692 ft | 330 kts | 144° |
| 2026-05-06 01:43 | 22.54869 | -102.56374 | 17967 ft | 345 kts | 144° |
| 2026-05-06 01:43 | 22.52915 | -102.54745 | 18231 ft | 360 kts | 144° |
| 2026-05-06 01:43 | 22.50898 | -102.53066 | 18481 ft | 375 kts | 144° |
| 2026-05-06 01:44 | 22.48782 | -102.51305 | 18725 ft | 389 kts | 144° |
| 2026-05-06 01:44 | 22.46597 | -102.49485 | 18956 ft | 402 kts | 144° |
| 2026-05-06 01:44 | 22.44348 | -102.47612 | 19171 ft | 415 kts | 144° |
| 2026-05-06 01:44 | 22.42026 | -102.45680 | 19374 ft | 427 kts | 144° |
| 2026-05-06 01:45 | 22.39640 | -102.43696 | 19571 ft | 438 kts | 144° |
| 2026-05-06 01:45 | 22.37190 | -102.41657 | 19911 ft | 445 kts | 144° |
| 2026-05-06 01:45 | 22.34758 | -102.39634 | 20398 ft | 447 kts | 144° |
| 2026-05-06 01:45 | 22.32301 | -102.37588 | 20907 ft | 448 kts | 144° |
| 2026-05-06 01:46 | 22.29832 | -102.35536 | 21386 ft | 451 kts | 144° |
| 2026-05-06 01:46 | 22.27322 | -102.33453 | 21853 ft | 453 kts | 145° |
| 2026-05-06 01:46 | 22.24805 | -102.31361 | 22337 ft | 455 kts | 145° |
| 2026-05-06 01:46 | 22.22316 | -102.29298 | 22773 ft | 457 kts | 145° |
| 2026-05-06 01:47 | 22.19783 | -102.27198 | 23184 ft | 460 kts | 145° |
| 2026-05-06 01:47 | 22.17245 | -102.25095 | 23702 ft | 460 kts | 145° |
| 2026-05-06 01:47 | 22.14708 | -102.22990 | 24316 ft | 457 kts | 145° |
| 2026-05-06 01:47 | 22.12183 | -102.20898 | 24885 ft | 456 kts | 145° |
| 2026-05-06 01:48 | 22.09679 | -102.18824 | 25395 ft | 455 kts | 146° |
| 2026-05-06 01:48 | 22.07169 | -102.16749 | 25890 ft | 455 kts | 146° |
| 2026-05-06 01:48 | 22.04665 | -102.14679 | 26396 ft | 455 kts | 146° |
| 2026-05-06 01:48 | 22.02144 | -102.12595 | 26890 ft | 454 kts | 146° |
| 2026-05-06 01:49 | 21.99663 | -102.10545 | 27364 ft | 454 kts | 146° |
| 2026-05-06 01:49 | 21.97162 | -102.08479 | 27828 ft | 454 kts | 146° |
| 2026-05-06 01:49 | 21.94665 | -102.06419 | 28281 ft | 454 kts | 146° |
| 2026-05-06 01:49 | 21.92154 | -102.04346 | 28737 ft | 454 kts | 146° |
| 2026-05-06 01:50 | 21.89622 | -102.02258 | 29180 ft | 454 kts | 146° |
| 2026-05-06 01:50 | 21.87119 | -102.00195 | 29652 ft | 453 kts | 146° |
| 2026-05-06 01:50 | 21.84618 | -101.98135 | 30168 ft | 451 kts | 146° |
| 2026-05-06 01:50 | 21.82157 | -101.96108 | 30653 ft | 449 kts | 146° |
| 2026-05-06 01:51 | 21.80189 | -101.94486 | 31020 ft | 448 kts | 146° |
| 2026-05-06 01:51 | 21.77724 | -101.92457 | 31462 ft | 447 kts | 146° |
| 2026-05-06 01:51 | 21.75244 | -101.90417 | 31887 ft | 447 kts | 146° |
| 2026-05-06 01:51 | 21.72781 | -101.88390 | 32294 ft | 446 kts | 146° |
| 2026-05-06 01:52 | 21.70320 | -101.86368 | 32691 ft | 445 kts | 146° |
| 2026-05-06 01:52 | 21.67861 | -101.84347 | 33128 ft | 445 kts | 146° |
| 2026-05-06 01:52 | 21.65406 | -101.82330 | 33561 ft | 444 kts | 146° |
| 2026-05-06 01:52 | 21.62967 | -101.80308 | 33957 ft | 444 kts | 144° |
| 2026-05-06 01:53 | 21.60614 | -101.78179 | 34269 ft | 446 kts | 141° |
| 2026-05-06 01:53 | 21.58352 | -101.75899 | 34560 ft | 449 kts | 138° |
| 2026-05-06 01:53 | 21.56193 | -101.73469 | 34849 ft | 452 kts | 135° |
| 2026-05-06 01:53 | 21.54138 | -101.70879 | 35138 ft | 454 kts | 131° |
| 2026-05-06 01:54 | 21.52234 | -101.68192 | 35364 ft | 456 kts | 128° |
| 2026-05-06 01:54 | 21.50423 | -101.65339 | 35370 ft | 463 kts | 126° |
| 2026-05-06 01:54 | 21.46861 | -101.59534 | 35381 ft | 469 kts | 126° |
| 2026-05-06 01:55 | 21.43292 | -101.53717 | 35401 ft | 469 kts | 126° |
| 2026-05-06 01:55 | 21.39700 | -101.47885 | 35428 ft | 469 kts | 126° |
| 2026-05-06 01:56 | 21.36100 | -101.42051 | 35446 ft | 469 kts | 126° |
| 2026-05-06 01:56 | 21.32506 | -101.36235 | 35455 ft | 468 kts | 126° |
| 2026-05-06 01:57 | 21.28903 | -101.30412 | 35463 ft | 469 kts | 126° |
| 2026-05-06 01:57 | 21.25324 | -101.24631 | 35472 ft | 468 kts | 126° |
| 2026-05-06 01:58 | 21.21720 | -101.18815 | 35460 ft | 469 kts | 126° |
| 2026-05-06 01:58 | 21.18114 | -101.13005 | 35441 ft | 469 kts | 126° |
| 2026-05-06 01:59 | 21.14495 | -101.07176 | 35416 ft | 469 kts | 126° |
| 2026-05-06 01:59 | 21.10874 | -101.01349 | 35403 ft | 469 kts | 126° |
| 2026-05-06 02:00 | 21.07261 | -100.95599 | 35391 ft | 468 kts | 127° |
| 2026-05-06 02:00 | 21.03336 | -100.90028 | 35392 ft | 467 kts | 129° |
| 2026-05-06 02:01 | 20.99390 | -100.84519 | 35379 ft | 467 kts | 129° |
| 2026-05-06 02:01 | 20.95442 | -100.79012 | 35374 ft | 467 kts | 129° |
| 2026-05-06 02:02 | 20.91503 | -100.73512 | 35366 ft | 467 kts | 129° |
| 2026-05-06 02:02 | 20.87534 | -100.67977 | 35368 ft | 467 kts | 129° |
| 2026-05-06 02:03 | 20.83595 | -100.62486 | 35375 ft | 467 kts | 129° |
| 2026-05-06 02:03 | 20.79648 | -100.56990 | 35375 ft | 466 kts | 129° |
| 2026-05-06 02:04 | 20.75700 | -100.51498 | 35390 ft | 466 kts | 129° |
| 2026-05-06 02:04 | 20.71778 | -100.46052 | 35370 ft | 465 kts | 129° |
| 2026-05-06 02:05 | 20.67831 | -100.40571 | 35343 ft | 466 kts | 129° |
| 2026-05-06 02:05 | 20.63887 | -100.35102 | 35333 ft | 466 kts | 129° |
| 2026-05-06 02:06 | 20.59919 | -100.29605 | 35321 ft | 466 kts | 129° |
| 2026-05-06 02:06 | 20.56022 | -100.24205 | 35312 ft | 447 kts | 129° |
| 2026-05-06 02:07 | 20.54168 | -100.21636 | 35316 ft | 432 kts | 130° |
| 2026-05-06 02:07 | 20.52353 | -100.19122 | 35215 ft | 420 kts | 129° |
| 2026-05-06 02:07 | 20.50587 | -100.16681 | 34595 ft | 420 kts | 130° |
| 2026-05-06 02:07 | 20.48785 | -100.14195 | 33467 ft | 430 kts | 130° |
| 2026-05-06 02:08 | 20.46933 | -100.11641 | 32159 ft | 445 kts | 130° |
| 2026-05-06 02:08 | 20.45016 | -100.09003 | 30796 ft | 460 kts | 129° |
| 2026-05-06 02:08 | 20.43026 | -100.06264 | 29350 ft | 475 kts | 129° |
| 2026-05-06 02:08 | 20.41007 | -100.03478 | 28265 ft | 479 kts | 129° |
| 2026-05-06 02:09 | 20.38995 | -100.00703 | 27719 ft | 470 kts | 129° |
| 2026-05-06 02:09 | 20.37008 | -99.97961 | 27190 ft | 463 kts | 129° |
| 2026-05-06 02:09 | 20.35065 | -99.95280 | 26678 ft | 455 kts | 129° |
| 2026-05-06 02:09 | 20.33149 | -99.92641 | 26162 ft | 449 kts | 129° |
| 2026-05-06 02:10 | 20.31243 | -99.90015 | 25643 ft | 442 kts | 129° |
| 2026-05-06 02:10 | 20.29386 | -99.87460 | 25145 ft | 436 kts | 129° |
| 2026-05-06 02:10 | 20.27537 | -99.84917 | 24631 ft | 431 kts | 128° |
| 2026-05-06 02:10 | 20.25722 | -99.82423 | 24118 ft | 426 kts | 128° |
| 2026-05-06 02:11 | 20.23917 | -99.79945 | 23587 ft | 422 kts | 128° |
| 2026-05-06 02:11 | 20.21959 | -99.77676 | 23039 ft | 417 kts | 140° |
| 2026-05-06 02:11 | 20.19510 | -99.76016 | 22527 ft | 412 kts | 154° |
| 2026-05-06 02:11 | 20.16822 | -99.75082 | 22012 ft | 408 kts | 167° |
| 2026-05-06 02:12 | 20.14021 | -99.74504 | 21485 ft | 406 kts | 168° |
| 2026-05-06 02:12 | 20.11282 | -99.73972 | 20957 ft | 403 kts | 169° |
| 2026-05-06 02:12 | 20.08511 | -99.73436 | 20423 ft | 401 kts | 168° |
| 2026-05-06 02:12 | 20.05788 | -99.72903 | 19904 ft | 399 kts | 168° |
| 2026-05-06 02:13 | 20.03069 | -99.72367 | 19376 ft | 397 kts | 168° |
| 2026-05-06 02:13 | 20.00340 | -99.71827 | 18846 ft | 395 kts | 168° |
| 2026-05-06 02:13 | 19.97642 | -99.71293 | 18453 ft | 389 kts | 168° |
| 2026-05-06 02:13 | 19.95022 | -99.70772 | 18322 ft | 374 kts | 168° |
| 2026-05-06 02:14 | 19.92522 | -99.70276 | 18327 ft | 357 kts | 168° |
| 2026-05-06 02:14 | 19.90141 | -99.69803 | 18327 ft | 340 kts | 168° |
| 2026-05-06 02:14 | 19.87855 | -99.69349 | 18336 ft | 328 kts | 168° |
| 2026-05-06 02:14 | 19.85591 | -99.68865 | 18345 ft | 328 kts | 162° |
| 2026-05-06 02:15 | 19.83571 | -99.67808 | 18343 ft | 326 kts | 140° |
| 2026-05-06 02:15 | 19.82040 | -99.66046 | 18348 ft | 324 kts | 124° |
| 2026-05-06 02:15 | 19.80764 | -99.64069 | 18338 ft | 325 kts | 123° |
| 2026-05-06 02:15 | 19.79517 | -99.62087 | 18322 ft | 322 kts | 120° |
| 2026-05-06 02:16 | 19.78798 | -99.59911 | 18275 ft | 304 kts | 92° |
| 2026-05-06 02:16 | 19.79127 | -99.57749 | 18282 ft | 298 kts | 67° |
| 2026-05-06 02:16 | 19.80276 | -99.55932 | 18283 ft | 300 kts | 47° |
| 2026-05-06 02:16 | 19.81744 | -99.54361 | 18276 ft | 300 kts | 46° |
| 2026-05-06 02:17 | 19.83215 | -99.52782 | 18265 ft | 299 kts | 46° |
| 2026-05-06 02:17 | 19.84658 | -99.51205 | 18261 ft | 300 kts | 47° |
| 2026-05-06 02:17 | 19.86107 | -99.49606 | 18255 ft | 300 kts | 47° |
| 2026-05-06 02:17 | 19.87563 | -99.47991 | 18255 ft | 300 kts | 47° |
| 2026-05-06 02:18 | 19.88821 | -99.46275 | 18249 ft | 299 kts | 60° |
| 2026-05-06 02:18 | 19.89647 | -99.44249 | 18251 ft | 298 kts | 73° |
| 2026-05-06 02:18 | 19.90186 | -99.42125 | 18247 ft | 299 kts | 76° |
| 2026-05-06 02:18 | 19.90691 | -99.39976 | 18240 ft | 299 kts | 76° |
| 2026-05-06 02:19 | 19.91197 | -99.37840 | 18230 ft | 298 kts | 76° |
| 2026-05-06 02:19 | 19.91715 | -99.35693 | 18223 ft | 298 kts | 76° |
| 2026-05-06 02:19 | 19.91958 | -99.33523 | 18202 ft | 299 kts | 97° |
| 2026-05-06 02:19 | 19.91285 | -99.31451 | 18179 ft | 297 kts | 122° |
| 2026-05-06 02:20 | 19.87962 | -99.29099 | 17401 ft | 300 kts | 172° |
| 2026-05-06 02:20 | 19.85888 | -99.29061 | 17239 ft | 298 kts | 180° |
| 2026-05-06 02:20 | 19.83789 | -99.29099 | 17224 ft | 300 kts | 179° |
| 2026-05-06 02:21 | 19.81682 | -99.29115 | 17211 ft | 300 kts | 179° |
| 2026-05-06 02:21 | 19.79595 | -99.29115 | 17179 ft | 301 kts | 178° |
| 2026-05-06 02:21 | 19.77483 | -99.29112 | 16809 ft | 303 kts | 179° |
| 2026-05-06 02:21 | 19.75379 | -99.29108 | 16426 ft | 303 kts | 179° |
| 2026-05-06 02:22 | 19.73257 | -99.29106 | 16048 ft | 303 kts | 179° |
| 2026-05-06 02:22 | 19.71157 | -99.29108 | 15682 ft | 302 kts | 179° |
| 2026-05-06 02:22 | 19.69052 | -99.29108 | 15324 ft | 300 kts | 179° |
| 2026-05-06 02:22 | 19.66965 | -99.29107 | 14971 ft | 299 kts | 178° |
| 2026-05-06 02:23 | 19.64900 | -99.29106 | 14621 ft | 297 kts | 179° |
| 2026-05-06 02:23 | 19.62830 | -99.29107 | 14392 ft | 289 kts | 179° |
| 2026-05-06 02:23 | 19.60864 | -99.29076 | 14261 ft | 278 kts | 172° |
| 2026-05-06 02:23 | 19.59069 | -99.28509 | 14115 ft | 266 kts | 149° |
| 2026-05-06 02:24 | 19.57537 | -99.27412 | 13779 ft | 266 kts | 141° |
| 2026-05-06 02:24 | 19.56061 | -99.26225 | 13423 ft | 265 kts | 141° |
| 2026-05-06 02:24 | 19.54575 | -99.25033 | 13080 ft | 265 kts | 142° |
| 2026-05-06 02:24 | 19.53066 | -99.23940 | 12749 ft | 265 kts | 154° |
| 2026-05-06 02:25 | 19.51285 | -99.23473 | 12432 ft | 264 kts | 176° |
| 2026-05-06 02:25 | 19.49452 | -99.23432 | 12106 ft | 262 kts | 178° |
| 2026-05-06 02:25 | 19.47639 | -99.23425 | 11772 ft | 257 kts | 178° |
| 2026-05-06 02:25 | 19.45877 | -99.23412 | 11467 ft | 251 kts | 178° |
| 2026-05-06 02:26 | 19.44150 | -99.23389 | 11248 ft | 239 kts | 178° |
| 2026-05-06 02:26 | 19.42533 | -99.23364 | 10941 ft | 227 kts | 178° |
| 2026-05-06 02:26 | 19.40994 | -99.23338 | 10632 ft | 217 kts | 178° |
| 2026-05-06 02:26 | 19.39551 | -99.23083 | 10391 ft | 200 kts | 159° |
| 2026-05-06 02:27 | 19.38421 | -99.22353 | 10184 ft | 183 kts | 139° |
| 2026-05-06 02:27 | 19.37647 | -99.21317 | 9841 ft | 175 kts | 120° |
| 2026-05-06 02:27 | 19.37260 | -99.20134 | 9593 ft | 170 kts | 102° |
| 2026-05-06 02:27 | 19.37248 | -99.18886 | 9368 ft | 171 kts | 82° |
| 2026-05-06 02:28 | 19.37645 | -99.17703 | 9165 ft | 170 kts | 67° |
| 2026-05-06 02:28 | 19.38189 | -99.16637 | 9054 ft | 161 kts | 63° |
| 2026-05-06 02:28 | 19.38769 | -99.15623 | 8859 ft | 160 kts | 58° |
| 2026-05-06 02:28 | 19.39486 | -99.14732 | 8658 ft | 159 kts | 50° |
| 2026-05-06 02:29 | 19.40172 | -99.13817 | 8443 ft | 157 kts | 60° |
| 2026-05-06 02:29 | 19.40717 | -99.12803 | 8255 ft | 157 kts | 63° |
| 2026-05-06 02:29 | 19.41239 | -99.11798 | 8058 ft | 157 kts | 63° |
| 2026-05-06 02:29 | 19.41802 | -99.10801 | 7820 ft | 157 kts | 61° |
| 2026-05-06 02:30 | 19.42351 | -99.09811 | 7608 ft | 156 kts | 62° |
| 2026-05-06 02:30 | 19.42892 | -99.08815 | 7398 ft | 154 kts | 61° |
| 2026-05-06 02:30 | 19.43411 | -99.07887 | 7332 ft | 132 kts | 60° |
| 2026-05-06 02:30 | 19.43796 | -99.07207 | 7330 ft | 82 kts | 59° |
| 2026-05-06 02:31 | 19.43999 | -99.06844 | 7330 ft | 32 kts | 58° |
| 2026-05-06 02:31 | 19.44079 | -99.06719 | 7329 ft | 12 kts | 36° |
| 2026-05-06 02:31 | 19.44140 | -99.06683 | 7329 ft | 8 kts | 28° |
| 2026-05-06 02:31 | 19.44192 | -99.06679 | 7329 ft | 7 kts | 324° |
| 2026-05-06 02:32 | 19.44202 | -99.06712 | 7329 ft | 5 kts | 261° |
| 2026-05-06 02:32 | 19.44191 | -99.06741 | 7329 ft | 4 kts | 235° |
| 2026-05-06 02:32 | 19.44174 | -99.06768 | 7329 ft | 4 kts | 236° |
| 2026-05-06 02:32 | 19.44155 | -99.06799 | 7329 ft | 5 kts | 238° |
| 2026-05-06 02:33 | 19.44134 | -99.06835 | 7329 ft | 5 kts | 239° |
| 2026-05-06 02:33 | 19.44120 | -99.06860 | 7329 ft | 6 kts | 239° |
| 2026-05-06 02:34 | 19.44029 | -99.07025 | 7330 ft | 11 kts | 240° |
| 2026-05-06 02:34 | 19.43985 | -99.07104 | 7330 ft | 13 kts | 239° |
| 2026-05-06 02:34 | 19.43930 | -99.07200 | 7330 ft | 16 kts | 238° |
| 2026-05-06 02:34 | 19.43866 | -99.07310 | 7330 ft | 18 kts | 239° |
| 2026-05-06 02:35 | 19.43798 | -99.07430 | 7330 ft | 19 kts | 239° |
| 2026-05-06 02:35 | 19.43730 | -99.07552 | 7331 ft | 18 kts | 240° |
| 2026-05-06 02:35 | 19.43667 | -99.07667 | 7331 ft | 18 kts | 239° |
| 2026-05-06 02:35 | 19.43603 | -99.07780 | 7331 ft | 17 kts | 239° |
| 2026-05-06 02:36 | 19.43541 | -99.07890 | 7331 ft | 17 kts | 239° |
| 2026-05-06 02:36 | 19.43481 | -99.07996 | 7331 ft | 16 kts | 239° |
| 2026-05-06 02:36 | 19.43423 | -99.08101 | 7332 ft | 16 kts | 239° |
| 2026-05-06 02:36 | 19.43369 | -99.08195 | 7332 ft | 14 kts | 239° |
| 2026-05-06 02:37 | 19.43321 | -99.08279 | 7332 ft | 9 kts | 238° |
| 2026-05-06 02:37 | 19.43299 | -99.08330 | 7332 ft | 5 kts | 276° |
| 2026-05-06 02:37 | 19.43327 | -99.08361 | 7332 ft | 5 kts | 330° |
| 2026-05-06 02:37 | 19.43353 | -99.08377 | 7332 ft | 2 kts | 330° |
| 2026-05-06 02:38 | 19.43365 | -99.08385 | 7332 ft | 0 kts | 329° |
| 2026-05-06 02:38 | 19.43367 | -99.08385 | 7332 ft | 0 kts | 329° |